Time,TemperatureF,DewpointF,PressureIn,WindDirection,WindDirectionDegrees,WindSpeedMPH,WindSpeedGustMPH,Humidity,HourlyPrecipIn,Conditions,Clouds,dailyrainin,SoftwareType,DateUTC
2013-02-06 00:00:00,31.1,30.8,29.86,NE,38,3.4,4.5,99,0.00,,---,0.00,VWS V14.01,2013-02-06 05:00:00,
2013-02-06 00:01:00,29.5,12.7,30.30,NNE,25,3.6,7.3,49,0.00,,---,0.00,VWS V14.01,2013-02-06 05:01:00,
2013-02-06 00:05:00,31.3,31.0,29.86,North,359,3.0,5.1,99,0.00,,---,0.00,VWS V14.01,2013-02-06 05:05:00,
2013-02-06 00:10:00,30.9,30.6,29.86,NNE,13,1.5,3.2,99,0.00,,---,0.00,VWS V14.01,2013-02-06 05:10:00,
2013-02-06 00:15:00,31.6,31.3,29.86,NE,45,0.0,0.0,99,0.00,,---,0.00,VWS V14.01,2013-02-06 05:15:00,
2013-02-06 00:20:00,31.5,31.1,29.85,NE,45,0.0,0.0,99,0.00,,---,0.00,VWS V14.01,2013-02-06 05:20:00,
2013-02-06 00:25:00,31.3,31.0,29.85,NE,45,0.0,0.0,99,0.00,,---,0.00,VWS V14.01,2013-02-06 05:25:00,
2013-02-06 00:30:00,31.4,31.0,29.85,NE,45,0.0,0.0,99,0.00,,---,0.00,VWS V14.01,2013-02-06 05:30:00,
2013-02-06 00:35:00,31.5,31.1,29.85,NE,45,0.0,0.0,98,0.00,,---,0.00,VWS V14.01,2013-02-06 05:35:00,
2013-02-06 00:40:00,31.5,31.1,29.86,North,359,0.2,4.8,98,0.00,,---,0.00,VWS V14.01,2013-02-06 05:40:00,
2013-02-06 00:45:00,31.4,31.0,29.85,North,359,0.0,0.0,98,0.00,,---,0.00,VWS V14.01,2013-02-06 05:45:00,
2013-02-06 00:50:00,31.1,30.7,29.85,North,359,0.0,0.0,98,0.00,,---,0.00,VWS V14.01,2013-02-06 05:50:00,
2013-02-06 00:55:00,31.5,31.1,29.85,NW,326,0.0,0.0,98,0.00,,---,0.00,VWS V14.01,2013-02-06 05:55:00,
2013-02-06 01:00:00,31.1,30.7,29.85,NW,326,0.0,0.0,98,2.41,,---,0.00,VWS V14.01,2013-02-06 06:00:00,
2013-02-06 01:05:00,31.2,30.8,29.86,NW,326,0.0,0.0,98,0.00,,---,0.00,VWS V14.01,2013-02-06 06:05:00,
2013-02-06 01:10:00,31.2,30.8,29.86,NW,326,0.0,0.0,98,0.00,,---,0.00,VWS V14.01,2013-02-06 06:10:00,
2013-02-06 01:12:00,30.1,29.6,29.92,WNW,300,3.0,3.0,98,0.00,,---,0.00,VWS V14.01,2013-02-06 06:12:00,
2013-02-06 01:15:00,31.3,30.9,29.86,NNW,345,5.7,5.7,98,0.00,,---,0.00,VWS V14.01,2013-02-06 06:15:00,
2013-02-06 01:20:00,31.4,31.0,29.86,North,359,0.3,8.1,98,0.00,,---,0.00,VWS V14.01,2013-02-06 06:20:00,
2013-02-06 01:25:00,31.5,31.0,29.86,North,359,0.9,8.8,98,0.00,,---,0.00,VWS V14.01,2013-02-06 06:25:00,
2013-02-06 01:30:00,31.2,30.8,29.86,NE,52,5.5,8.6,98,0.00,,---,0.00,VWS V14.01,2013-02-06 06:30:00,
2013-02-06 01:35:00,31.3,30.9,29.86,North,357,4.0,5.8,98,0.00,,---,0.00,VWS V14.01,2013-02-06 06:35:00,
2013-02-06 01:40:00,31.1,30.6,29.86,NNW,347,4.9,5.8,98,0.00,,---,0.00,VWS V14.01,2013-02-06 06:40:00,
2013-02-06 01:45:00,31.5,31.1,29.87,North,11,7.4,7.4,98,0.00,,---,0.00,VWS V14.01,2013-02-06 06:45:00,
2013-02-06 01:50:00,31.1,30.7,29.86,North,349,6.8,6.8,98,0.00,,---,0.00,VWS V14.01,2013-02-06 06:50:00,
2013-02-06 01:55:00,30.9,30.5,29.86,NE,34,4.8,6.3,98,0.00,,---,0.00,VWS V14.01,2013-02-06 06:55:00,
2013-02-06 02:00:00,31.5,31.1,29.87,NNW,333,6.3,6.3,98,0.00,,---,0.00,VWS V14.01,2013-02-06 07:00:00,
2013-02-06 02:05:00,31.0,30.6,29.88,NE,45,6.6,6.6,98,0.00,,---,0.00,VWS V14.01,2013-02-06 07:05:00,
2013-02-06 02:10:00,31.7,31.3,29.88,NE,37,3.0,7.1,98,0.00,,---,0.00,VWS V14.01,2013-02-06 07:10:00,
2013-02-06 02:15:00,31.2,30.8,29.88,NW,312,5.2,6.2,98,0.00,,---,0.00,VWS V14.01,2013-02-06 07:15:00,
2013-02-06 02:20:00,31.1,30.7,29.88,NNW,328,5.0,5.0,98,0.00,,---,0.00,VWS V14.01,2013-02-06 07:20:00,
2013-02-06 02:25:00,31.3,30.9,29.87,North,3,4.2,4.5,98,0.00,,---,0.00,VWS V14.01,2013-02-06 07:25:00,
2013-02-06 02:30:00,31.5,31.1,29.87,NE,38,4.8,7.4,98,0.00,,---,0.00,VWS V14.01,2013-02-06 07:30:00,
2013-02-06 02:35:00,31.0,30.7,29.87,NNW,329,4.3,5.2,99,0.00,,---,0.00,VWS V14.01,2013-02-06 07:35:00,
2013-02-06 02:40:00,31.2,30.9,29.87,NW,325,5.3,6.2,99,0.00,,---,0.00,VWS V14.01,2013-02-06 07:40:00,
2013-02-06 02:45:00,31.3,31.0,29.87,NW,312,3.0,4.8,99,0.00,,---,0.00,VWS V14.01,2013-02-06 07:45:00,
2013-02-06 02:50:00,31.2,30.9,29.86,North,354,2.8,2.8,99,0.00,,---,0.00,VWS V14.01,2013-02-06 07:50:00,
2013-02-06 02:55:00,30.8,30.5,29.86,NNW,339,4.0,5.2,99,0.00,,---,0.00,VWS V14.01,2013-02-06 07:55:00,
2013-02-06 03:00:00,31.1,30.8,29.87,NNW,332,5.7,5.7,99,0.00,,---,0.00,VWS V14.01,2013-02-06 08:00:00,
2013-02-06 03:05:00,30.8,30.5,29.87,NW,321,4.3,4.7,99,0.00,,---,0.00,VWS V14.01,2013-02-06 08:05:00,
2013-02-06 03:10:00,31.0,30.7,29.87,NW,323,0.0,0.0,99,0.00,,---,0.00,VWS V14.01,2013-02-06 08:10:00,
2013-02-06 03:14:00,31.1,30.8,29.87,NW,323,0.0,0.0,99,0.00,,---,0.00,VWS V14.01,2013-02-06 08:14:00,
2013-02-06 03:19:00,31.3,31.0,29.87,NW,323,0.0,0.0,99,0.00,,---,0.00,VWS V14.01,2013-02-06 08:19:00,
2013-02-06 03:24:00,30.9,30.6,29.88,NW,323,0.0,0.0,99,0.00,,---,0.00,VWS V14.01,2013-02-06 08:24:00,
2013-02-06 03:29:00,30.7,30.4,29.88,NW,326,0.0,0.0,99,36.27,,---,0.00,VWS V14.01,2013-02-06 08:29:00,
2013-02-06 03:34:00,31.2,30.9,29.88,NW,326,0.0,0.0,99,0.00,,---,0.00,VWS V14.01,2013-02-06 08:34:00,
2013-02-06 03:39:00,31.1,30.8,29.88,NW,326,0.0,0.0,99,0.00,,---,0.00,VWS V14.01,2013-02-06 08:39:00,
2013-02-06 03:44:00,30.9,30.6,29.88,NW,326,0.0,0.0,99,0.00,,---,0.00,VWS V14.01,2013-02-06 08:44:00,
2013-02-06 03:49:00,30.5,30.1,29.88,NW,326,0.0,0.0,99,0.00,,---,0.00,VWS V14.01,2013-02-06 08:49:00,
2013-02-06 03:54:00,31.2,30.9,29.88,WNW,297,1.7,3.2,99,0.00,,---,0.00,VWS V14.01,2013-02-06 08:54:00,
2013-02-06 03:59:00,31.3,31.0,29.88,NW,304,0.0,0.0,99,0.00,,---,0.00,VWS V14.01,2013-02-06 08:59:00,
2013-02-06 04:04:00,31.1,30.8,29.88,NW,304,0.0,0.0,99,0.00,,---,0.00,VWS V14.01,2013-02-06 09:04:00,
2013-02-06 04:09:00,31.3,31.0,29.88,NW,304,0.0,0.0,99,0.00,,---,0.00,VWS V14.01,2013-02-06 09:09:00,
2013-02-06 04:14:00,31.1,30.8,29.89,NW,304,0.0,0.0,99,0.00,,---,0.00,VWS V14.01,2013-02-06 09:14:00,
2013-02-06 04:19:00,31.3,31.0,29.89,NW,321,1.9,1.9,99,0.00,,---,0.00,VWS V14.01,2013-02-06 09:19:00,
2013-02-06 04:24:00,31.0,30.7,29.89,WNW,298,3.0,3.0,99,0.00,,---,0.00,VWS V14.01,2013-02-06 09:24:00,
2013-02-06 04:29:00,31.0,30.7,29.89,NW,305,2.4,3.5,99,0.00,,---,0.00,VWS V14.01,2013-02-06 09:29:00,
2013-02-06 04:34:00,30.9,30.5,29.89,NNW,329,5.5,5.8,98,0.00,,---,0.00,VWS V14.01,2013-02-06 09:34:00,
2013-02-06 04:39:00,31.0,30.6,29.90,NW,312,4.2,4.7,98,0.00,,---,0.00,VWS V14.01,2013-02-06 09:39:00,
2013-02-06 04:44:00,30.8,30.4,29.90,NW,305,1.6,2.4,98,0.00,,---,0.00,VWS V14.01,2013-02-06 09:44:00,
2013-02-06 04:49:00,31.1,30.6,29.90,NW,325,5.3,5.3,98,0.00,,---,0.00,VWS V14.01,2013-02-06 09:49:00,
2013-02-06 04:54:00,30.7,30.3,29.90,North,359,5.4,5.7,98,0.00,,---,0.00,VWS V14.01,2013-02-06 09:54:00,
2013-02-06 04:59:00,30.9,30.5,29.91,North,6,4.7,4.9,98,0.00,,---,0.00,VWS V14.01,2013-02-06 09:59:00,
2013-02-06 05:04:00,30.0,29.5,29.91,North,359,7.3,7.3,98,0.00,,---,0.00,VWS V14.01,2013-02-06 10:04:00,
2013-02-06 05:09:00,30.4,30.0,29.91,North,4,3.1,3.1,98,0.00,,---,0.00,VWS V14.01,2013-02-06 10:09:00,
2013-02-06 05:14:00,30.2,29.8,29.91,NNW,333,3.5,3.5,98,0.00,,---,0.00,VWS V14.01,2013-02-06 10:14:00,
2013-02-06 05:19:00,29.6,29.1,29.92,NW,312,2.9,5.5,98,0.00,,---,0.00,VWS V14.01,2013-02-06 10:19:00,
2013-02-06 05:24:00,29.7,29.2,29.92,NNW,339,3.0,3.0,98,0.00,,---,0.00,VWS V14.01,2013-02-06 10:24:00,
2013-02-06 05:29:00,29.9,29.4,29.92,NW,314,2.1,3.8,98,0.00,,---,0.00,VWS V14.01,2013-02-06 10:29:00,
2013-02-06 05:34:00,29.6,29.2,29.92,NW,318,2.3,3.5,98,0.00,,---,0.00,VWS V14.01,2013-02-06 10:34:00,
2013-02-06 05:39:00,30.0,29.6,29.92,NNE,15,3.5,4.0,98,0.00,,---,0.00,VWS V14.01,2013-02-06 10:39:00,
2013-02-06 05:44:00,30.0,29.6,29.93,North,359,0.0,3.2,98,0.00,,---,0.00,VWS V14.01,2013-02-06 10:44:00,
2013-02-06 05:49:00,30.1,29.6,29.93,North,359,1.7,5.3,98,0.00,,---,0.00,VWS V14.01,2013-02-06 10:49:00,
2013-02-06 05:54:00,29.4,29.0,29.93,NNW,340,3.5,3.8,98,0.00,,---,0.00,VWS V14.01,2013-02-06 10:54:00,
2013-02-06 05:59:00,29.5,29.1,29.94,NNW,330,0.0,3.2,98,0.00,,---,0.00,VWS V14.01,2013-02-06 10:59:00,
2013-02-06 06:04:00,29.6,29.2,29.94,NW,318,3.5,3.6,98,0.00,,---,0.00,VWS V14.01,2013-02-06 11:04:00,
2013-02-06 06:09:00,29.6,29.2,29.95,NNW,332,3.5,5.0,98,0.00,,---,0.00,VWS V14.01,2013-02-06 11:09:00,
2013-02-06 06:14:00,29.0,28.7,29.95,North,359,4.1,7.4,99,0.00,,---,0.00,VWS V14.01,2013-02-06 11:14:00,
2013-02-06 06:19:00,29.3,28.9,29.95,North,359,2.9,4.7,98,0.00,,---,0.00,VWS V14.01,2013-02-06 11:19:00,
2013-02-06 06:24:00,29.4,29.0,29.96,North,359,2.9,3.8,99,0.00,,---,0.00,VWS V14.01,2013-02-06 11:24:00,
2013-02-06 06:29:00,29.5,29.1,29.96,North,359,3.2,4.5,99,0.00,,---,0.00,VWS V14.01,2013-02-06 11:29:00,
2013-02-06 06:34:00,28.9,28.6,29.96,NNW,345,0.0,3.4,99,0.00,,---,0.00,VWS V14.01,2013-02-06 11:34:00,
2013-02-06 06:39:00,28.6,28.2,29.96,NNW,346,0.4,2.9,98,0.00,,---,0.00,VWS V14.01,2013-02-06 11:39:00,
2013-02-06 06:44:00,28.8,28.4,29.97,NW,316,1.9,4.0,98,0.00,,---,0.00,VWS V14.01,2013-02-06 11:44:00,
2013-02-06 06:49:00,28.5,28.2,29.97,NNW,329,3.4,5.4,99,0.00,,---,0.00,VWS V14.01,2013-02-06 11:49:00,
2013-02-06 06:54:00,28.8,28.5,29.97,WSW,240,1.0,3.0,99,0.00,,---,0.00,VWS V14.01,2013-02-06 11:54:00,
2013-02-06 06:59:00,28.7,28.4,29.97,NW,322,0.0,4.0,99,0.00,,---,0.00,VWS V14.01,2013-02-06 11:59:00,
2013-02-06 07:04:00,28.9,28.6,29.98,North,352,2.9,2.9,99,0.00,,---,0.00,VWS V14.01,2013-02-06 12:04:00,
2013-02-06 07:09:00,28.5,28.2,29.98,WNW,287,0.0,2.0,99,0.00,,---,0.00,VWS V14.01,2013-02-06 12:09:00,
2013-02-06 07:14:00,28.6,28.3,29.98,WNW,287,0.0,0.0,99,0.00,,---,0.00,VWS V14.01,2013-02-06 12:14:00,
2013-02-06 07:19:00,28.5,28.2,29.99,WNW,287,0.0,0.0,99,0.00,,---,0.00,VWS V14.01,2013-02-06 12:19:00,
2013-02-06 07:24:00,28.7,28.4,29.99,WNW,287,0.0,0.0,99,0.00,,---,0.00,VWS V14.01,2013-02-06 12:24:00,
2013-02-06 07:29:00,28.8,28.5,29.99,WNW,287,0.0,0.0,99,0.00,,---,0.00,VWS V14.01,2013-02-06 12:29:00,
2013-02-06 07:34:00,28.6,28.3,29.99,WNW,287,0.0,0.0,99,0.00,,---,0.00,VWS V14.01,2013-02-06 12:34:00,
2013-02-06 07:39:00,28.9,28.6,29.99,WNW,287,0.0,0.0,99,2.12,,---,0.00,VWS V14.01,2013-02-06 12:39:00,
2013-02-06 07:44:00,28.5,28.2,30.00,WNW,287,0.0,0.0,99,0.00,,---,0.00,VWS V14.01,2013-02-06 12:44:00,
2013-02-06 07:49:00,28.2,27.9,30.00,WNW,287,0.0,0.0,99,0.00,,---,0.00,VWS V14.01,2013-02-06 12:49:00,
2013-02-06 07:54:00,28.2,27.9,30.00,WNW,290,0.0,0.0,99,0.00,,---,0.00,VWS V14.01,2013-02-06 12:54:00,
2013-02-06 07:59:00,28.9,28.6,30.01,WNW,301,2.4,4.1,99,0.00,,---,0.00,VWS V14.01,2013-02-06 12:59:00,
2013-02-06 08:04:00,28.8,28.6,30.01,West,277,4.7,4.7,99,36.34,,---,0.00,VWS V14.01,2013-02-06 13:04:00,
2013-02-06 08:09:00,28.8,28.6,30.01,WNW,297,0.0,0.0,99,0.00,,---,0.00,VWS V14.01,2013-02-06 13:09:00,
2013-02-06 08:14:00,28.8,28.6,30.01,West,280,5.4,6.2,99,0.00,,---,0.00,VWS V14.01,2013-02-06 13:14:00,
2013-02-06 08:19:00,29.1,28.9,30.02,NW,305,3.5,5.3,99,0.00,,---,0.00,VWS V14.01,2013-02-06 13:19:00,
2013-02-06 08:24:00,29.2,28.9,30.02,WNW,298,6.0,7.1,99,0.00,,---,0.00,VWS V14.01,2013-02-06 13:24:00,
2013-02-06 08:29:00,29.5,29.0,30.02,NE,49,4.8,9.4,98,0.00,,---,0.00,VWS V14.01,2013-02-06 13:29:00,
2013-02-06 08:34:00,30.2,29.4,30.03,NW,308,5.3,6.4,97,0.00,,---,0.00,VWS V14.01,2013-02-06 13:34:00,
2013-02-06 08:39:00,30.4,28.4,30.03,NNW,347,4.8,10.1,92,0.00,,---,0.00,VWS V14.01,2013-02-06 13:39:00,
2013-02-06 08:44:00,30.1,27.5,30.03,North,359,0.2,9.3,90,0.00,,---,0.00,VWS V14.01,2013-02-06 13:44:00,
2013-02-06 08:49:00,31.1,27.7,30.03,North,10,5.8,9.2,87,0.00,,---,0.00,VWS V14.01,2013-02-06 13:49:00,
2013-02-06 08:54:00,31.5,27.4,30.03,North,359,0.0,0.4,84,0.00,,---,0.00,VWS V14.01,2013-02-06 13:54:00,
2013-02-06 08:59:00,31.2,26.4,30.03,NE,42,0.0,9.6,82,0.00,,---,0.00,VWS V14.01,2013-02-06 13:59:00,
2013-02-06 09:04:00,31.4,26.5,30.03,NNW,347,8.5,9.7,82,0.00,,---,0.00,VWS V14.01,2013-02-06 14:04:00,
2013-02-06 09:09:00,31.7,26.1,30.03,NW,309,4.7,10.9,80,0.01,,---,0.01,VWS V14.01,2013-02-06 14:09:00,
2013-02-06 09:14:00,32.0,25.6,30.03,NW,314,9.8,13.4,77,0.01,,---,0.01,VWS V14.01,2013-02-06 14:14:00,
2013-02-06 09:19:00,31.7,24.9,30.03,NNW,328,6.1,9.1,76,0.01,,---,0.01,VWS V14.01,2013-02-06 14:19:00,
2013-02-06 09:24:00,32.2,25.2,30.03,North,359,0.5,11.6,75,0.01,,---,0.01,VWS V14.01,2013-02-06 14:24:00,
2013-02-06 09:29:00,31.5,24.1,30.03,North,4,8.5,15.2,74,0.00,,---,0.01,VWS V14.01,2013-02-06 14:29:00,
2013-02-06 09:34:00,32.3,24.8,30.03,NW,315,15.7,16.8,74,0.01,,---,0.01,VWS V14.01,2013-02-06 14:34:00,
2013-02-06 09:39:00,32.5,24.6,30.04,North,359,0.0,3.0,72,0.01,,---,0.01,VWS V14.01,2013-02-06 14:39:00,
2013-02-06 09:44:00,32.7,24.4,30.04,WNW,294,11.7,16.9,71,0.01,,---,0.01,VWS V14.01,2013-02-06 14:44:00,
2013-02-06 09:49:00,33.3,25.1,30.04,NNW,328,8.6,8.6,72,0.01,,---,0.01,VWS V14.01,2013-02-06 14:49:00,
2013-02-06 09:54:00,32.7,23.9,30.05,NNW,330,10.7,14.0,70,0.00,,---,0.01,VWS V14.01,2013-02-06 14:54:00,
2013-02-06 09:59:00,33.3,24.8,30.05,ESE,108,14.0,16.5,71,0.01,,---,0.01,VWS V14.01,2013-02-06 14:59:00,
2013-02-06 10:04:00,33.4,24.6,30.05,West,278,9.9,9.9,70,0.01,,---,0.01,VWS V14.01,2013-02-06 15:04:00,
2013-02-06 10:09:00,33.3,24.2,30.05,North,8,17.0,18.7,69,0.00,,---,0.01,VWS V14.01,2013-02-06 15:09:00,
2013-02-06 10:14:00,33.3,24.0,30.05,NW,325,12.0,12.0,68,0.00,,---,0.01,VWS V14.01,2013-02-06 15:14:00,
2013-02-06 10:19:00,33.6,24.3,30.05,WNW,302,9.2,12.0,68,0.00,,---,0.01,VWS V14.01,2013-02-06 15:19:00,
2013-02-06 10:24:00,33.7,23.7,30.05,NNW,329,6.0,10.8,66,0.00,,---,0.01,VWS V14.01,2013-02-06 15:24:00,
2013-02-06 10:29:00,34.0,24.0,30.05,NW,325,9.4,9.8,66,0.00,,---,0.01,VWS V14.01,2013-02-06 15:29:00,
2013-02-06 10:34:00,33.9,23.7,30.05,NE,55,7.0,17.2,66,0.00,,---,0.01,VWS V14.01,2013-02-06 15:34:00,
2013-02-06 10:39:00,34.2,24.2,30.05,NNW,343,8.1,11.5,66,36.10,,---,0.01,VWS V14.01,2013-02-06 15:39:00,
2013-02-06 10:44:00,34.7,23.7,30.05,NE,38,7.7,14.6,64,0.00,,---,0.01,VWS V14.01,2013-02-06 15:44:00,
2013-02-06 10:49:00,34.3,22.9,30.05,North,1,12.8,16.9,63,0.00,,---,0.01,VWS V14.01,2013-02-06 15:49:00,
2013-02-06 10:54:00,34.3,23.2,30.05,NNW,332,11.4,11.4,64,0.00,,---,0.01,VWS V14.01,2013-02-06 15:54:00,
2013-02-06 10:59:00,35.1,23.8,30.05,NNE,18,9.6,11.2,63,0.00,,---,0.01,VWS V14.01,2013-02-06 15:59:00,
2013-02-06 11:04:00,35.6,24.1,30.05,NNW,345,12.0,12.4,63,0.00,,---,0.01,VWS V14.01,2013-02-06 16:04:00,
2013-02-06 11:09:00,35.8,24.2,30.05,NW,314,4.7,9.8,62,0.00,,---,0.01,VWS V14.01,2013-02-06 16:09:00,
2013-02-06 11:14:00,35.8,23.4,30.05,NNW,343,6.4,12.6,60,0.00,,---,0.01,VWS V14.01,2013-02-06 16:14:00,
2013-02-06 11:19:00,35.2,22.8,30.05,NNW,347,9.3,13.1,60,0.00,,---,0.01,VWS V14.01,2013-02-06 16:19:00,
2013-02-06 11:24:00,35.2,23.5,30.05,NNW,339,7.2,8.8,62,0.00,,---,0.01,VWS V14.01,2013-02-06 16:24:00,
2013-02-06 11:28:00,35.2,22.8,30.05,NW,316,7.8,15.7,60,0.00,,---,0.01,VWS V14.01,2013-02-06 16:28:00,
2013-02-06 11:33:00,35.3,22.9,30.05,North,359,1.7,11.6,60,0.00,,---,0.01,VWS V14.01,2013-02-06 16:33:00,
2013-02-06 11:38:00,35.3,22.1,30.05,NNE,13,13.0,18.2,58,35.98,,---,0.01,VWS V14.01,2013-02-06 16:38:00,
2013-02-06 11:43:00,35.4,22.1,30.05,North,349,8.3,12.3,58,0.00,,---,0.01,VWS V14.01,2013-02-06 16:43:00,
2013-02-06 11:48:00,35.8,23.2,30.05,ENE,76,9.8,11.4,60,0.00,,---,0.01,VWS V14.01,2013-02-06 16:48:00,
2013-02-06 11:53:00,35.3,21.7,30.05,North,0,11.5,13.6,57,0.00,,---,0.01,VWS V14.01,2013-02-06 16:53:00,
2013-02-06 11:58:00,36.2,21.7,30.05,North,11,11.8,14.7,55,0.00,,---,0.01,VWS V14.01,2013-02-06 16:58:00,
2013-02-06 12:03:00,37.0,22.7,30.04,NE,52,11.6,11.6,56,0.00,,---,0.01,VWS V14.01,2013-02-06 17:03:00,
2013-02-06 12:08:00,35.8,20.6,30.05,North,359,2.1,3.0,54,0.00,,---,0.01,VWS V14.01,2013-02-06 17:08:00,
2013-02-06 12:14:00,36.9,22.7,30.04,WNW,285,10.7,10.7,56,35.99,,---,0.01,VWS V14.01,2013-02-06 17:14:00,
2013-02-06 12:19:00,36.5,21.2,30.05,NW,325,12.8,15.9,53,0.00,,---,0.01,VWS V14.01,2013-02-06 17:19:00,
2013-02-06 12:24:00,36.9,20.7,30.05,NW,312,16.1,16.7,51,0.00,,---,0.01,VWS V14.01,2013-02-06 17:24:00,
2013-02-06 12:28:00,36.5,20.7,30.05,WNW,302,14.5,14.8,52,0.00,,---,0.01,VWS V14.01,2013-02-06 17:28:00,
2013-02-06 12:33:00,35.9,18.8,30.05,NW,325,20.6,21.1,49,0.00,,---,0.01,VWS V14.01,2013-02-06 17:33:00,
2013-02-06 12:38:00,36.4,20.1,30.05,NW,321,9.6,13.7,51,36.05,,---,0.01,VWS V14.01,2013-02-06 17:38:00,
2013-02-06 12:43:00,36.6,20.6,30.05,NNW,330,11.6,13.5,52,0.00,,---,0.01,VWS V14.01,2013-02-06 17:43:00,
2013-02-06 12:48:00,36.8,21.2,30.05,NW,321,17.1,19.4,53,0.00,,---,0.01,VWS V14.01,2013-02-06 17:48:00,
2013-02-06 12:53:00,36.6,20.7,30.05,NNE,15,10.4,13.2,52,0.00,,---,0.01,VWS V14.01,2013-02-06 17:53:00,
2013-02-06 12:58:00,36.6,21.4,30.05,NE,39,4.1,11.5,54,0.00,,---,0.01,VWS V14.01,2013-02-06 17:58:00,
2013-02-06 13:03:00,36.6,21.5,30.05,NW,318,11.9,15.8,54,0.00,,---,0.01,VWS V14.01,2013-02-06 18:03:00,
2013-02-06 13:08:00,35.8,20.5,30.05,North,359,13.4,13.5,53,0.00,,---,0.01,VWS V14.01,2013-02-06 18:08:00,
2013-02-06 13:13:00,36.3,21.3,30.05,North,359,1.7,13.5,54,36.08,,---,0.01,VWS V14.01,2013-02-06 18:13:00,
2013-02-06 13:18:00,36.4,20.8,30.05,North,359,0.0,0.3,53,0.00,,---,0.01,VWS V14.01,2013-02-06 18:18:00,
2013-02-06 13:23:00,36.0,20.8,30.05,North,359,0.7,18.7,54,0.00,,---,0.01,VWS V14.01,2013-02-06 18:23:00,
2013-02-06 13:28:00,36.7,21.1,30.05,NW,321,23.1,23.1,53,0.00,,---,0.01,VWS V14.01,2013-02-06 18:28:00,
2013-02-06 13:33:00,36.9,21.4,30.05,North,359,0.0,0.0,53,0.00,,---,0.01,VWS V14.01,2013-02-06 18:33:00,
2013-02-06 13:38:00,37.1,21.7,30.06,NNW,336,8.3,12.0,53,36.15,,---,0.01,VWS V14.01,2013-02-06 18:38:00,
2013-02-06 13:43:00,36.6,20.9,30.05,NW,315,9.6,9.6,53,0.00,,---,0.01,VWS V14.01,2013-02-06 18:43:00,
2013-02-06 13:48:00,37.0,21.3,30.06,NNE,13,12.4,17.6,53,0.00,,---,0.01,VWS V14.01,2013-02-06 18:48:00,
2013-02-06 13:53:00,36.1,21.2,30.06,North,6,13.4,15.0,54,0.00,,---,0.01,VWS V14.01,2013-02-06 18:53:00,
2013-02-06 13:58:00,36.0,21.2,30.06,North,359,1.0,1.0,54,0.00,,---,0.01,VWS V14.01,2013-02-06 18:58:00,
2013-02-06 14:03:00,36.1,20.9,30.06,North,359,19.3,19.3,54,0.00,,---,0.01,VWS V14.01,2013-02-06 19:03:00,
2013-02-06 14:08:00,36.7,21.9,30.06,NE,45,12.7,13.5,55,0.00,,---,0.01,VWS V14.01,2013-02-06 19:08:00,
2013-02-06 14:13:00,37.0,21.5,30.07,North,359,14.2,14.7,53,36.27,,---,0.01,VWS V14.01,2013-02-06 19:13:00,
2013-02-06 14:18:00,37.0,22.1,30.07,WNW,295,9.4,9.4,54,0.00,,---,0.01,VWS V14.01,2013-02-06 19:18:00,
2013-02-06 14:23:00,37.2,22.0,30.07,NW,326,12.8,12.8,54,0.00,,---,0.01,VWS V14.01,2013-02-06 19:23:00,
2013-02-06 14:28:00,36.6,21.2,30.07,SSW,210,10.3,10.7,53,0.00,,---,0.01,VWS V14.01,2013-02-06 19:28:00,
2013-02-06 14:33:00,37.3,21.5,30.08,NNW,336,15.6,18.5,52,0.00,,---,0.01,VWS V14.01,2013-02-06 19:33:00,
2013-02-06 14:38:00,36.5,20.9,30.07,NW,308,21.0,21.0,53,36.35,,---,0.01,VWS V14.01,2013-02-06 19:38:00,
2013-02-06 14:43:00,36.9,21.8,30.08,North,359,8.6,8.8,54,0.00,,---,0.01,VWS V14.01,2013-02-06 19:43:00,
2013-02-06 14:48:00,36.7,21.5,30.08,NNW,336,11.2,11.2,54,0.00,,---,0.01,VWS V14.01,2013-02-06 19:48:00,
2013-02-06 14:53:00,37.1,21.9,30.08,NNW,332,9.3,9.3,54,0.00,,---,0.01,VWS V14.01,2013-02-06 19:53:00,
2013-02-06 14:58:00,37.3,22.1,30.08,WNW,292,8.1,11.6,54,0.00,,---,0.01,VWS V14.01,2013-02-06 19:58:00,
2013-02-06 15:03:00,36.7,21.9,30.08,NNW,345,7.1,7.5,55,0.00,,---,0.01,VWS V14.01,2013-02-06 20:03:00,
2013-02-06 15:08:00,36.7,22.2,30.08,North,353,10.7,10.7,55,0.00,,---,0.01,VWS V14.01,2013-02-06 20:08:00,
2013-02-06 15:13:00,37.2,22.7,30.08,NW,319,10.9,10.9,55,0.00,,---,0.01,VWS V14.01,2013-02-06 20:13:00,
2013-02-06 15:18:00,37.1,22.0,30.09,SE,142,13.6,17.5,54,0.00,,---,0.01,VWS V14.01,2013-02-06 20:18:00,
2013-02-06 15:23:00,37.6,21.9,30.08,WSW,257,5.8,12.3,53,0.00,,---,0.01,VWS V14.01,2013-02-06 20:23:00,
2013-02-06 15:28:00,37.3,20.6,30.08,NW,314,8.3,12.1,50,36.37,,---,0.01,VWS V14.01,2013-02-06 20:28:00,
2013-02-06 15:33:00,37.7,20.5,30.08,NW,318,6.7,9.1,50,0.00,,---,0.01,VWS V14.01,2013-02-06 20:33:00,
2013-02-06 15:38:00,37.4,20.0,30.09,West,280,8.2,11.4,49,0.00,,---,0.01,VWS V14.01,2013-02-06 20:38:00,
2013-02-06 15:43:00,37.3,20.3,30.09,WNW,292,5.6,13.0,50,0.00,,---,0.01,VWS V14.01,2013-02-06 20:43:00,
2013-02-06 15:48:00,37.7,20.3,30.09,NW,308,16.2,16.2,49,0.00,,---,0.01,VWS V14.01,2013-02-06 20:48:00,
2013-02-06 15:53:00,37.4,19.9,30.10,NW,308,15.5,15.5,49,36.37,,---,0.01,VWS V14.01,2013-02-06 20:53:00,
2013-02-06 15:58:00,37.8,20.3,30.10,NW,309,8.3,10.4,49,0.00,,---,0.01,VWS V14.01,2013-02-06 20:58:00,
2013-02-06 16:03:00,37.4,19.2,30.10,WNW,300,11.7,20.4,47,0.00,,---,0.01,VWS V14.01,2013-02-06 21:03:00,
2013-02-06 16:08:00,37.3,18.8,30.10,NW,305,15.2,21.9,47,0.00,,---,0.01,VWS V14.01,2013-02-06 21:08:00,
2013-02-06 16:13:00,37.6,19.6,30.10,West,281,9.3,14.7,48,0.00,,---,0.01,VWS V14.01,2013-02-06 21:13:00,
2013-02-06 16:18:00,37.5,20.0,30.11,NW,308,13.5,13.5,49,0.00,,---,0.01,VWS V14.01,2013-02-06 21:18:00,
2013-02-06 16:23:00,37.6,20.2,30.10,West,263,6.1,12.7,49,0.00,,---,0.01,VWS V14.01,2013-02-06 21:23:00,
2013-02-06 16:28:00,37.3,20.2,30.11,NW,309,14.1,14.7,50,0.00,,---,0.01,VWS V14.01,2013-02-06 21:28:00,
2013-02-06 16:33:00,37.4,20.5,30.12,NW,312,8.1,10.3,50,0.00,,---,0.01,VWS V14.01,2013-02-06 21:33:00,
2013-02-06 16:38:00,37.0,20.0,30.12,NW,322,6.5,10.3,50,0.00,,---,0.01,VWS V14.01,2013-02-06 21:38:00,
2013-02-06 16:43:00,37.4,20.6,30.12,WNW,297,15.7,16.5,50,0.00,,---,0.01,VWS V14.01,2013-02-06 21:43:00,
2013-02-06 16:48:00,37.3,20.2,30.12,WNW,283,10.7,13.4,50,0.00,,---,0.01,VWS V14.01,2013-02-06 21:48:00,
2013-02-06 16:53:00,37.0,20.0,30.12,West,277,6.5,13.9,50,36.37,,---,0.01,VWS V14.01,2013-02-06 21:53:00,
2013-02-06 16:58:00,37.0,20.1,30.13,West,274,6.4,10.1,50,0.00,,---,0.01,VWS V14.01,2013-02-06 21:58:00,
2013-02-06 17:03:00,37.2,19.8,30.13,SE,129,14.1,17.0,49,0.00,,---,0.01,VWS V14.01,2013-02-06 22:03:00,
2013-02-06 17:08:00,36.5,19.2,30.13,NW,316,14.0,14.5,49,0.00,,---,0.01,VWS V14.01,2013-02-06 22:08:00,
2013-02-06 17:13:00,36.9,19.8,30.13,NW,319,5.9,10.3,50,0.00,,---,0.01,VWS V14.01,2013-02-06 22:13:00,
2013-02-06 17:17:00,35.9,20.8,30.18,NW,323,9.3,10.3,54,0.00,,---,0.01,VWS V14.01,2013-02-06 22:17:00,
2013-02-06 17:18:00,37.0,20.1,30.14,NW,321,8.4,9.4,50,0.00,,---,0.01,VWS V14.01,2013-02-06 22:18:00,
2013-02-06 17:23:00,36.6,19.7,30.14,NW,321,6.7,14.0,50,0.00,,---,0.01,VWS V14.01,2013-02-06 22:23:00,
2013-02-06 17:28:00,36.5,19.6,30.14,North,353,11.1,13.7,50,36.37,,---,0.01,VWS V14.01,2013-02-06 22:28:00,
2013-02-06 17:33:00,36.6,20.1,30.14,WNW,291,11.1,11.1,51,0.00,,---,0.01,VWS V14.01,2013-02-06 22:33:00,
2013-02-06 17:38:00,36.2,20.0,30.15,NNW,330,5.7,8.3,51,0.00,,---,0.01,VWS V14.01,2013-02-06 22:38:00,
2013-02-06 17:43:00,36.6,20.3,30.15,North,356,10.2,13.4,51,0.00,,---,0.01,VWS V14.01,2013-02-06 22:43:00,
2013-02-06 17:48:00,36.4,20.2,30.15,WNW,300,8.8,9.2,52,0.00,,---,0.01,VWS V14.01,2013-02-06 22:48:00,
2013-02-06 17:53:00,36.6,20.6,30.15,NW,321,9.6,9.6,52,36.39,,---,0.01,VWS V14.01,2013-02-06 22:53:00,
2013-02-06 17:58:00,36.6,20.8,30.16,NNW,332,12.4,14.1,52,0.00,,---,0.01,VWS V14.01,2013-02-06 22:58:00,
2013-02-06 18:03:00,35.9,20.3,30.16,North,357,8.6,9.4,53,0.00,,---,0.01,VWS V14.01,2013-02-06 23:03:00,
2013-02-06 18:08:00,35.7,20.2,30.17,NW,307,7.6,9.6,53,0.00,,---,0.01,VWS V14.01,2013-02-06 23:08:00,
2013-02-06 18:13:00,36.2,20.9,30.17,NW,326,3.1,6.1,53,0.00,,---,0.01,VWS V14.01,2013-02-06 23:13:00,
2013-02-06 18:18:00,35.8,20.6,30.17,NW,316,6.3,7.3,54,0.00,,---,0.01,VWS V14.01,2013-02-06 23:18:00,
2013-02-06 18:23:00,35.6,20.6,30.18,North,349,6.3,7.1,54,0.00,,---,0.01,VWS V14.01,2013-02-06 23:23:00,
2013-02-06 18:28:00,35.5,20.6,30.18,NNW,338,7.5,8.6,54,0.00,,---,0.01,VWS V14.01,2013-02-06 23:28:00,
2013-02-06 18:33:00,35.2,20.4,30.18,North,353,6.6,7.9,54,0.00,,---,0.01,VWS V14.01,2013-02-06 23:33:00,
2013-02-06 18:38:00,35.3,20.7,30.18,NNW,340,5.6,5.8,55,0.00,,---,0.01,VWS V14.01,2013-02-06 23:38:00,
2013-02-06 18:43:00,35.1,20.5,30.18,North,353,8.4,8.4,55,0.00,,---,0.01,VWS V14.01,2013-02-06 23:43:00,
2013-02-06 18:48:00,35.1,20.6,30.19,NNW,345,5.4,6.5,55,0.00,,---,0.01,VWS V14.01,2013-02-06 23:48:00,
2013-02-06 18:53:00,35.1,20.5,30.19,NNW,338,9.3,9.3,55,36.37,,---,0.01,VWS V14.01,2013-02-06 23:53:00,
2013-02-06 18:58:00,34.7,20.2,30.20,NNW,333,6.9,6.9,55,0.00,,---,0.01,VWS V14.01,2013-02-06 23:58:00,
2013-02-06 19:03:00,34.6,20.1,30.20,North,354,9.1,9.8,55,0.00,,---,0.01,VWS V14.01,2013-02-07 00:03:00,
2013-02-06 19:08:00,35.0,20.5,30.20,North,359,5.4,7.2,55,0.00,,---,0.01,VWS V14.01,2013-02-07 00:08:00,
2013-02-06 19:13:00,35.0,20.7,30.20,NW,326,8.5,8.7,56,0.00,,---,0.01,VWS V14.01,2013-02-07 00:13:00,
2013-02-06 19:17:00,34.9,20.6,30.20,North,353,6.3,7.6,55,0.00,,---,0.01,VWS V14.01,2013-02-07 00:17:00,
2013-02-06 19:22:00,34.2,19.9,30.21,NNW,328,5.7,6.7,56,0.00,,---,0.01,VWS V14.01,2013-02-07 00:22:00,
2013-02-06 19:27:00,34.8,20.6,30.21,NNW,329,5.9,8.3,56,0.00,,---,0.01,VWS V14.01,2013-02-07 00:27:00,
2013-02-06 19:32:00,34.4,20.4,30.21,North,354,4.4,5.0,56,0.00,,---,0.01,VWS V14.01,2013-02-07 00:32:00,
2013-02-06 19:37:00,34.5,20.6,30.21,North,357,3.9,6.1,56,0.00,,---,0.01,VWS V14.01,2013-02-07 00:37:00,
2013-02-06 19:42:00,34.4,20.7,30.21,WNW,298,3.5,3.5,57,0.00,,---,0.01,VWS V14.01,2013-02-07 00:42:00,
2013-02-06 19:47:00,33.7,20.1,30.22,NW,314,3.3,3.7,57,0.00,,---,0.01,VWS V14.01,2013-02-07 00:47:00,
2013-02-06 19:52:00,34.3,20.7,30.21,NNW,333,3.1,3.9,57,36.38,,---,0.01,VWS V14.01,2013-02-07 00:52:00,
2013-02-06 19:57:00,34.1,20.6,30.21,NW,319,3.4,3.9,57,0.00,,---,0.01,VWS V14.01,2013-02-07 00:57:00,
2013-02-06 20:02:00,33.5,20.2,30.21,NNW,330,4.0,4.0,58,0.00,,---,0.01,VWS V14.01,2013-02-07 01:02:00,
2013-02-06 20:07:00,33.5,20.2,30.22,NW,323,4.2,5.2,58,0.00,,---,0.01,VWS V14.01,2013-02-07 01:07:00,
2013-02-06 20:12:00,33.5,20.4,30.22,NW,321,5.0,5.8,58,0.00,,---,0.01,VWS V14.01,2013-02-07 01:12:00,
2013-02-06 20:17:00,33.2,20.2,30.23,WNW,302,5.8,7.0,58,36.39,,---,0.01,VWS V14.01,2013-02-07 01:17:00,
2013-02-06 20:22:00,33.6,20.6,30.22,NW,326,2.2,3.4,58,0.00,,---,0.01,VWS V14.01,2013-02-07 01:22:00,
2013-02-06 20:27:00,33.2,20.3,30.23,NNW,346,4.8,5.1,59,0.00,,---,0.01,VWS V14.01,2013-02-07 01:27:00,
2013-02-06 20:32:00,33.2,20.4,30.23,North,359,5.4,5.4,59,0.00,,---,0.01,VWS V14.01,2013-02-07 01:32:00,
2013-02-06 20:37:00,32.9,19.9,30.23,North,7,4.2,4.5,58,0.00,,---,0.01,VWS V14.01,2013-02-07 01:37:00,
2013-02-06 20:42:00,32.9,19.5,30.23,NNW,346,6.0,6.4,57,0.00,,---,0.01,VWS V14.01,2013-02-07 01:42:00,
2013-02-06 20:47:00,32.8,19.3,30.23,North,1,4.4,5.8,57,0.00,,---,0.01,VWS V14.01,2013-02-07 01:47:00,
2013-02-06 20:52:00,32.4,18.9,30.23,NNW,345,3.7,3.7,57,0.00,,---,0.01,VWS V14.01,2013-02-07 01:52:00,
2013-02-06 20:57:00,32.5,18.6,30.24,NNW,330,3.9,4.0,56,0.00,,---,0.01,VWS V14.01,2013-02-07 01:57:00,
2013-02-06 21:02:00,32.3,18.1,30.24,North,356,2.7,2.7,55,0.00,,---,0.01,VWS V14.01,2013-02-07 02:02:00,
2013-02-06 21:07:00,31.8,17.7,30.24,NNW,347,4.7,4.8,55,0.00,,---,0.01,VWS V14.01,2013-02-07 02:07:00,
2013-02-06 21:12:00,32.0,17.0,30.24,North,354,6.4,6.5,54,0.00,,---,0.01,VWS V14.01,2013-02-07 02:12:00,
2013-02-06 21:17:00,32.1,17.0,30.25,North,353,7.8,7.8,53,2.14,,---,0.01,VWS V14.01,2013-02-07 02:17:00,
2013-02-06 21:22:00,31.9,17.1,30.25,North,352,6.5,6.5,54,0.00,,---,0.01,VWS V14.01,2013-02-07 02:22:00,
2013-02-06 21:27:00,31.7,16.9,30.25,North,354,7.0,7.0,54,0.00,,---,0.01,VWS V14.01,2013-02-07 02:27:00,
2013-02-06 21:32:00,31.5,16.5,30.25,North,359,7.1,7.8,53,0.00,,---,0.01,VWS V14.01,2013-02-07 02:32:00,
2013-02-06 21:37:00,31.4,16.0,30.26,North,359,7.3,7.6,52,0.00,,---,0.01,VWS V14.01,2013-02-07 02:37:00,
2013-02-06 21:42:00,31.5,16.2,30.26,North,356,8.8,8.8,53,0.00,,---,0.01,VWS V14.01,2013-02-07 02:42:00,
2013-02-06 21:47:00,31.3,16.1,30.26,North,10,8.5,8.5,53,0.00,,---,0.01,VWS V14.01,2013-02-07 02:47:00,
2013-02-06 21:52:00,31.2,16.0,30.26,East,100,9.6,10.5,53,0.00,,---,0.01,VWS V14.01,2013-02-07 02:52:00,
2013-02-06 21:57:00,31.3,16.1,30.26,NE,37,8.0,9.7,53,0.00,,---,0.01,VWS V14.01,2013-02-07 02:57:00,
2013-02-06 22:02:00,31.2,16.2,30.26,NE,45,6.8,7.6,53,0.00,,---,0.01,VWS V14.01,2013-02-07 03:02:00,
2013-02-06 22:06:00,31.0,15.5,30.27,NE,51,6.5,8.5,52,0.00,,---,0.01,VWS V14.01,2013-02-07 03:06:00,
2013-02-06 22:07:00,30.9,15.7,30.26,ENE,63,4.2,7.6,53,0.00,,---,0.01,VWS V14.01,2013-02-07 03:07:00,
2013-02-06 22:12:00,31.2,15.9,30.26,East,84,4.8,7.0,52,0.00,,---,0.01,VWS V14.01,2013-02-07 03:12:00,
2013-02-06 22:17:00,31.3,16.1,30.27,ENE,63,2.2,5.7,53,0.00,,---,0.01,VWS V14.01,2013-02-07 03:17:00,
2013-02-06 22:22:00,31.3,15.7,30.27,ENE,66,8.2,8.2,52,0.00,,---,0.01,VWS V14.01,2013-02-07 03:22:00,
2013-02-06 22:27:00,30.7,15.2,30.28,NE,38,5.2,9.8,52,0.00,,---,0.01,VWS V14.01,2013-02-07 03:27:00,
2013-02-06 22:32:00,31.0,14.6,30.28,NE,48,9.8,9.8,50,40.96,,---,0.01,VWS V14.01,2013-02-07 03:32:00,
2013-02-06 22:37:00,30.9,14.3,30.28,ENE,69,6.3,9.3,50,0.00,,---,0.01,VWS V14.01,2013-02-07 03:37:00,
2013-02-06 22:42:00,30.8,14.4,30.28,ESE,122,5.1,5.9,50,0.00,,---,0.01,VWS V14.01,2013-02-07 03:42:00,
2013-02-06 22:47:00,30.7,14.6,30.28,ESE,117,3.7,4.3,51,0.00,,---,0.01,VWS V14.01,2013-02-07 03:47:00,
2013-02-06 22:52:00,30.7,14.5,30.28,North,357,3.4,5.0,50,0.00,,---,0.01,VWS V14.01,2013-02-07 03:52:00,
2013-02-06 22:57:00,30.3,14.3,30.29,North,10,2.5,3.3,51,0.00,,---,0.01,VWS V14.01,2013-02-07 03:57:00,
2013-02-06 23:02:00,30.2,14.4,30.29,North,0,3.9,5.2,51,0.00,,---,0.01,VWS V14.01,2013-02-07 04:02:00,
2013-02-06 23:07:00,30.5,14.6,30.29,ENE,63,4.9,5.3,51,0.00,,---,0.01,VWS V14.01,2013-02-07 04:07:00,
2013-02-06 23:12:00,29.9,14.3,30.29,NNE,14,0.0,4.6,52,0.00,,---,0.01,VWS V14.01,2013-02-07 04:12:00,
2013-02-06 23:17:00,30.0,14.3,30.29,NNE,14,3.4,4.5,51,0.00,,---,0.01,VWS V14.01,2013-02-07 04:17:00,
2013-02-06 23:22:00,30.0,14.3,30.29,NNE,24,2.8,3.0,51,0.00,,---,0.01,VWS V14.01,2013-02-07 04:22:00,
2013-02-06 23:27:00,30.0,14.3,30.29,North,11,6.0,6.0,51,0.00,,---,0.01,VWS V14.01,2013-02-07 04:27:00,
2013-02-06 23:32:00,30.1,14.3,30.30,North,11,2.8,3.4,51,0.00,,---,0.01,VWS V14.01,2013-02-07 04:32:00,
2013-02-06 23:37:00,30.0,14.0,30.30,North,4,5.2,5.2,51,0.00,,---,0.01,VWS V14.01,2013-02-07 04:37:00,
2013-02-06 23:42:00,30.0,13.9,30.30,NNE,21,3.4,4.8,51,0.00,,---,0.01,VWS V14.01,2013-02-07 04:42:00,
2013-02-06 23:47:00,29.6,13.1,30.30,NNE,15,3.9,6.1,50,0.00,,---,0.01,VWS V14.01,2013-02-07 04:47:00,
2013-02-06 23:52:00,29.8,13.1,30.30,NNE,18,4.7,5.9,49,0.00,,---,0.01,VWS V14.01,2013-02-07 04:52:00,
2013-02-06 23:57:00,29.8,13.0,30.30,NNE,31,4.3,4.5,49,0.00,,---,0.01,VWS V14.01,2013-02-07 04:57:00,